Terminal Aerodrome Forecast
Issued by NWS

Current Version | Previous Version | Graphics & Text | Print | Product List | Glossary On
Versions: 1 2 3 4 5 6 7 8 9 10 11 12 13 14 15 16 17 18 19 20 21 22
000
FTUS41 KRLX 200800 AAA
TAFCKB
TAF AMD
KCKB 200856Z 2009/2106 00000KT P6SM OVC020
     FM201100 00000KT P6SM BKN150
     FM201600 04003KT P6SM OVC150
     FM210000 00000KT P6SM OVC070
     FM210500 00000KT P6SM BKN030=

USA.gov is the U.S. government's official web portal to all federal, state and local government web resources and services.